sensor_id;sensor_type;location;lat;lon;timestamp;pressure;altitude;pressure_sealevel;temperature;humidity
50011;BME280;35899;50.352;19.390;2023-06-22T00:00:19;97979.45;;;20.66;80.54
50011;BME280;35899;50.352;19.390;2023-06-22T00:03:05;97978.29;;;20.61;80.57
50011;BME280;35899;50.352;19.390;2023-06-22T00:05:32;97979.08;;;20.60;81.53
50011;BME280;35899;50.352;19.390;2023-06-22T00:08:01;97976.05;;;20.60;82.21
50011;BME280;35899;50.352;19.390;2023-06-22T00:10:28;97974.11;;;20.61;82.73
50011;BME280;35899;50.352;19.390;2023-06-22T00:12:55;97973.94;;;20.61;83.01
50011;BME280;35899;50.352;19.390;2023-06-22T00:15:21;97970.67;;;20.62;83.35
50011;BME280;35899;50.352;19.390;2023-06-22T00:17:48;97971.56;;;20.63;83.47
50011;BME280;35899;50.352;19.390;2023-06-22T00:20:15;97974.48;;;20.65;83.53
50011;BME280;35899;50.352;19.390;2023-06-22T00:22:42;97974.58;;;20.67;83.62
50011;BME280;35899;50.352;19.390;2023-06-22T00:25:08;97964.92;;;20.69;83.84
50011;BME280;35899;50.352;19.390;2023-06-22T00:27:35;97962.64;;;20.69;83.63
50011;BME280;35899;50.352;19.390;2023-06-22T00:30:02;97969.34;;;20.69;83.75
50011;BME280;35899;50.352;19.390;2023-06-22T00:32:28;97975.85;;;20.70;83.86
50011;BME280;35899;50.352;19.390;2023-06-22T00:34:54;97976.40;;;20.72;83.88
50011;BME280;35899;50.352;19.390;2023-06-22T00:37:21;97979.59;;;20.73;83.73
50011;BME280;35899;50.352;19.390;2023-06-22T00:39:47;97981.62;;;20.70;83.63
50011;BME280;35899;50.352;19.390;2023-06-22T00:42:14;97981.81;;;20.70;83.80
50011;BME280;35899;50.352;19.390;2023-06-22T00:44:40;97989.08;;;20.68;83.78
50011;BME280;35899;50.352;19.390;2023-06-22T00:47:06;97984.20;;;20.68;83.81
50011;BME280;35899;50.352;19.390;2023-06-22T00:49:32;97981.16;;;20.68;84.00
50011;BME280;35899;50.352;19.390;2023-06-22T00:51:59;97977.73;;;20.66;83.80
50011;BME280;35899;50.352;19.390;2023-06-22T00:54:26;97974.82;;;20.64;83.81
50011;BME280;35899;50.352;19.390;2023-06-22T00:56:53;97976.77;;;20.64;84.07
50011;BME280;35899;50.352;19.390;2023-06-22T00:59:20;97968.98;;;20.64;84.18
50011;BME280;35899;50.352;19.390;2023-06-22T01:01:47;97965.66;;;20.64;84.21
50011;BME280;35899;50.352;19.390;2023-06-22T01:04:13;97968.39;;;20.63;84.20
50011;BME280;35899;50.352;19.390;2023-06-22T01:09:39;97970.50;;;20.63;84.34
50011;BME280;35899;50.352;19.390;2023-06-22T01:12:12;97962.40;;;20.62;84.24
50011;BME280;35899;50.352;19.390;2023-06-22T01:17:06;97957.17;;;20.56;84.31
50011;BME280;35899;50.352;19.390;2023-06-22T01:22:02;97957.16;;;20.53;84.50
50011;BME280;35899;50.352;19.390;2023-06-22T01:24:41;97956.96;;;20.52;84.42
50011;BME280;35899;50.352;19.390;2023-06-22T01:29:40;97965.81;;;20.46;84.53
50011;BME280;35899;50.352;19.390;2023-06-22T01:32:08;97968.86;;;20.43;84.61
50011;BME280;35899;50.352;19.390;2023-06-22T01:34:36;97967.52;;;20.41;84.73
50011;BME280;35899;50.352;19.390;2023-06-22T01:37:04;97967.78;;;20.38;84.80
50011;BME280;35899;50.352;19.390;2023-06-22T01:39:31;97973.98;;;20.36;84.97
50011;BME280;35899;50.352;19.390;2023-06-22T01:41:58;97974.22;;;20.32;84.99
50011;BME280;35899;50.352;19.390;2023-06-22T01:44:25;97982.46;;;20.29;85.16
50011;BME280;35899;50.352;19.390;2023-06-22T01:46:51;97981.41;;;20.27;85.18
50011;BME280;35899;50.352;19.390;2023-06-22T01:49:20;97982.73;;;20.25;85.36
50011;BME280;35899;50.352;19.390;2023-06-22T01:51:46;97984.75;;;20.23;85.38
50011;BME280;35899;50.352;19.390;2023-06-22T01:54:13;97984.86;;;20.20;85.45
50011;BME280;35899;50.352;19.390;2023-06-22T01:56:39;97985.36;;;20.19;85.67
50011;BME280;35899;50.352;19.390;2023-06-22T01:59:18;97982.86;;;20.17;85.79
50011;BME280;35899;50.352;19.390;2023-06-22T02:01:50;97976.98;;;20.17;85.86
50011;BME280;35899;50.352;19.390;2023-06-22T02:04:21;97975.90;;;20.15;85.95
50011;BME280;35899;50.352;19.390;2023-06-22T02:06:51;97979.73;;;20.14;86.23
50011;BME280;35899;50.352;19.390;2023-06-22T02:09:20;97978.45;;;20.15;86.27
50011;BME280;35899;50.352;19.390;2023-06-22T02:11:48;97982.36;;;20.14;86.26
50011;BME280;35899;50.352;19.390;2023-06-22T02:14:17;97985.00;;;20.11;86.07
50011;BME280;35899;50.352;19.390;2023-06-22T02:16:45;97982.30;;;20.05;85.72
50011;BME280;35899;50.352;19.390;2023-06-22T02:19:12;97977.60;;;20.00;85.67
50011;BME280;35899;50.352;19.390;2023-06-22T02:21:38;97981.77;;;19.95;85.78
50011;BME280;35899;50.352;19.390;2023-06-22T02:24:04;97982.70;;;19.91;86.00
50011;BME280;35899;50.352;19.390;2023-06-22T02:26:31;97981.14;;;19.91;86.44
50011;BME280;35899;50.352;19.390;2023-06-22T02:29:00;97986.44;;;19.91;86.62
50011;BME280;35899;50.352;19.390;2023-06-22T02:31:26;97990.57;;;19.92;86.99
50011;BME280;35899;50.352;19.390;2023-06-22T02:33:52;97990.91;;;19.90;86.95
50011;BME280;35899;50.352;19.390;2023-06-22T02:36:19;97992.92;;;19.88;87.06
50011;BME280;35899;50.352;19.390;2023-06-22T02:38:45;97992.29;;;19.87;87.31
50011;BME280;35899;50.352;19.390;2023-06-22T02:41:11;97994.94;;;19.87;87.42
50011;BME280;35899;50.352;19.390;2023-06-22T02:46:35;98001.09;;;19.85;87.50
50011;BME280;35899;50.352;19.390;2023-06-22T02:49:02;98002.41;;;19.84;87.62
50011;BME280;35899;50.352;19.390;2023-06-22T02:51:29;97996.09;;;19.84;87.70
50011;BME280;35899;50.352;19.390;2023-06-22T02:53:56;98001.92;;;19.84;87.74
50011;BME280;35899;50.352;19.390;2023-06-22T02:56:28;98003.95;;;19.85;87.80
50011;BME280;35899;50.352;19.390;2023-06-22T02:58:59;98001.13;;;19.83;87.79
50011;BME280;35899;50.352;19.390;2023-06-22T03:01:26;97996.52;;;19.79;87.53
50011;BME280;35899;50.352;19.390;2023-06-22T03:03:56;98003.04;;;19.79;87.70
50011;BME280;35899;50.352;19.390;2023-06-22T03:06:22;98007.22;;;19.79;87.80
50011;BME280;35899;50.352;19.390;2023-06-22T03:08:50;98014.03;;;19.77;87.54
50011;BME280;35899;50.352;19.390;2023-06-22T03:11:17;98020.04;;;19.72;87.37
50011;BME280;35899;50.352;19.390;2023-06-22T03:13:43;98026.98;;;19.66;87.47
50011;BME280;35899;50.352;19.390;2023-06-22T03:16:10;98035.69;;;19.65;87.66
50011;BME280;35899;50.352;19.390;2023-06-22T03:18:39;98044.48;;;19.63;87.49
50011;BME280;35899;50.352;19.390;2023-06-22T03:21:06;98047.00;;;19.61;87.34
50011;BME280;35899;50.352;19.390;2023-06-22T03:23:32;98050.77;;;19.53;87.13
50011;BME280;35899;50.352;19.390;2023-06-22T03:25:59;98050.64;;;19.45;86.90
50011;BME280;35899;50.352;19.390;2023-06-22T03:28:25;98055.20;;;19.41;87.17
50011;BME280;35899;50.352;19.390;2023-06-22T03:30:53;98053.06;;;19.42;87.45
50011;BME280;35899;50.352;19.390;2023-06-22T03:33:19;98052.07;;;19.46;87.78
50011;BME280;35899;50.352;19.390;2023-06-22T03:38:37;98057.91;;;19.54;87.51
50011;BME280;35899;50.352;19.390;2023-06-22T03:41:04;98055.54;;;19.51;87.37
50011;BME280;35899;50.352;19.390;2023-06-22T03:43:31;98056.09;;;19.53;87.58
50011;BME280;35899;50.352;19.390;2023-06-22T03:45:57;98059.30;;;19.61;87.91
50011;BME280;35899;50.352;19.390;2023-06-22T03:48:23;98061.10;;;19.70;88.06
50011;BME280;35899;50.352;19.390;2023-06-22T03:50:50;98062.66;;;19.84;88.15
50011;BME280;35899;50.352;19.390;2023-06-22T03:53:16;98063.52;;;19.98;88.14
50011;BME280;35899;50.352;19.390;2023-06-22T03:55:49;98068.23;;;20.16;88.41
50011;BME280;35899;50.352;19.390;2023-06-22T03:58:16;98067.70;;;20.34;88.32
50011;BME280;35899;50.352;19.390;2023-06-22T04:00:43;98068.60;;;20.43;87.88
50011;BME280;35899;50.352;19.390;2023-06-22T04:03:09;98073.52;;;20.55;87.81
50011;BME280;35899;50.352;19.390;2023-06-22T04:05:35;98072.27;;;20.66;87.82
50011;BME280;35899;50.352;19.390;2023-06-22T04:08:02;98070.41;;;20.77;87.81
50011;BME280;35899;50.352;19.390;2023-06-22T04:10:28;98065.34;;;20.86;87.71
50011;BME280;35899;50.352;19.390;2023-06-22T04:12:55;98061.32;;;20.97;87.80
50011;BME280;35899;50.352;19.390;2023-06-22T04:15:21;98055.52;;;21.05;87.62
50011;BME280;35899;50.352;19.390;2023-06-22T04:17:48;98056.38;;;21.12;87.39
50011;BME280;35899;50.352;19.390;2023-06-22T04:20:14;98064.89;;;21.19;87.36
50011;BME280;35899;50.352;19.390;2023-06-22T04:22:41;98069.17;;;21.28;87.31
50011;BME280;35899;50.352;19.390;2023-06-22T04:25:07;98073.55;;;21.36;87.18
50011;BME280;35899;50.352;19.390;2023-06-22T04:27:34;98073.73;;;21.42;86.99
50011;BME280;35899;50.352;19.390;2023-06-22T04:30:00;98072.69;;;21.48;86.96
50011;BME280;35899;50.352;19.390;2023-06-22T04:32:27;98068.86;;;21.54;86.90
50011;BME280;35899;50.352;19.390;2023-06-22T04:34:53;98065.54;;;21.56;86.52
50011;BME280;35899;50.352;19.390;2023-06-22T04:37:19;98066.30;;;21.54;85.96
50011;BME280;35899;50.352;19.390;2023-06-22T04:39:46;98066.52;;;21.46;85.56
50011;BME280;35899;50.352;19.390;2023-06-22T04:42:12;98065.98;;;21.42;85.87
50011;BME280;35899;50.352;19.390;2023-06-22T04:44:38;98063.23;;;21.46;85.90
50011;BME280;35899;50.352;19.390;2023-06-22T04:47:05;98062.09;;;21.51;86.18
50011;BME280;35899;50.352;19.390;2023-06-22T04:49:31;98063.36;;;21.47;86.21
50011;BME280;35899;50.352;19.390;2023-06-22T04:51:58;98065.42;;;21.42;86.42
50011;BME280;35899;50.352;19.390;2023-06-22T04:54:24;98066.63;;;21.41;86.76
50011;BME280;35899;50.352;19.390;2023-06-22T04:56:51;98068.60;;;21.42;86.97
50011;BME280;35899;50.352;19.390;2023-06-22T04:59:17;98067.52;;;21.39;86.80
50011;BME280;35899;50.352;19.390;2023-06-22T05:01:43;98075.30;;;21.36;86.99
50011;BME280;35899;50.352;19.390;2023-06-22T05:04:10;98078.58;;;21.33;86.93
50011;BME280;35899;50.352;19.390;2023-06-22T05:06:37;98079.90;;;21.33;86.92
50011;BME280;35899;50.352;19.390;2023-06-22T05:09:06;98081.41;;;21.35;87.04
50011;BME280;35899;50.352;19.390;2023-06-22T05:11:32;98082.70;;;21.44;86.99
50011;BME280;35899;50.352;19.390;2023-06-22T05:13:59;98084.73;;;21.60;87.30
50011;BME280;35899;50.352;19.390;2023-06-22T05:16:25;98081.42;;;21.79;87.39
50011;BME280;35899;50.352;19.390;2023-06-22T05:18:52;98079.38;;;21.98;87.51
50011;BME280;35899;50.352;19.390;2023-06-22T05:21:23;98079.98;;;22.17;87.75
50011;BME280;35899;50.352;19.390;2023-06-22T05:23:50;98076.41;;;22.36;87.70
50011;BME280;35899;50.352;19.390;2023-06-22T05:26:17;98077.78;;;22.55;87.55
50011;BME280;35899;50.352;19.390;2023-06-22T05:28:43;98084.53;;;22.71;87.32
50011;BME280;35899;50.352;19.390;2023-06-22T05:31:09;98082.05;;;22.85;86.81
50011;BME280;35899;50.352;19.390;2023-06-22T05:33:36;98086.39;;;22.95;86.34
50011;BME280;35899;50.352;19.390;2023-06-22T05:36:02;98093.70;;;23.10;86.15
50011;BME280;35899;50.352;19.390;2023-06-22T05:38:28;98097.42;;;23.24;85.87
50011;BME280;35899;50.352;19.390;2023-06-22T05:40:55;98101.71;;;23.37;85.53
50011;BME280;35899;50.352;19.390;2023-06-22T05:43:21;98099.98;;;23.56;85.54
50011;BME280;35899;50.352;19.390;2023-06-22T05:45:48;98103.50;;;23.74;84.97
50011;BME280;35899;50.352;19.390;2023-06-22T05:48:14;98106.37;;;23.84;84.32
50011;BME280;35899;50.352;19.390;2023-06-22T05:50:40;98104.39;;;23.90;83.94
50011;BME280;35899;50.352;19.390;2023-06-22T05:53:07;98103.79;;;23.99;84.13
50011;BME280;35899;50.352;19.390;2023-06-22T05:55:33;98104.01;;;24.10;83.41
50011;BME280;35899;50.352;19.390;2023-06-22T05:58:01;98109.27;;;24.16;82.68
50011;BME280;35899;50.352;19.390;2023-06-22T06:00:28;98113.86;;;24.21;82.34
50011;BME280;35899;50.352;19.390;2023-06-22T06:02:54;98117.64;;;24.25;82.00
50011;BME280;35899;50.352;19.390;2023-06-22T06:05:21;98118.12;;;24.28;81.20
50011;BME280;35899;50.352;19.390;2023-06-22T06:07:47;98121.19;;;24.29;80.44
50011;BME280;35899;50.352;19.390;2023-06-22T06:10:14;98120.59;;;24.25;80.09
50011;BME280;35899;50.352;19.390;2023-06-22T06:12:40;98121.13;;;24.25;80.24
50011;BME280;35899;50.352;19.390;2023-06-22T06:15:07;98118.73;;;24.31;80.62
50011;BME280;35899;50.352;19.390;2023-06-22T06:17:44;98119.43;;;24.43;80.70
50011;BME280;35899;50.352;19.390;2023-06-22T06:20:11;98119.33;;;24.49;79.49
50011;BME280;35899;50.352;19.390;2023-06-22T06:22:37;98118.14;;;24.52;79.60
50011;BME280;35899;50.352;19.390;2023-06-22T06:25:03;98113.84;;;24.64;79.72
50011;BME280;35899;50.352;19.390;2023-06-22T06:27:31;98116.79;;;24.79;79.31
50011;BME280;35899;50.352;19.390;2023-06-22T06:29:57;98126.06;;;24.99;78.76
50011;BME280;35899;50.352;19.390;2023-06-22T06:32:23;98130.98;;;25.21;78.54
50011;BME280;35899;50.352;19.390;2023-06-22T06:34:50;98130.27;;;25.45;78.23
50011;BME280;35899;50.352;19.390;2023-06-22T06:37:16;98129.52;;;25.69;77.61
50011;BME280;35899;50.352;19.390;2023-06-22T06:39:43;98125.42;;;25.88;76.28
50011;BME280;35899;50.352;19.390;2023-06-22T06:42:10;98127.94;;;26.12;76.10
50011;BME280;35899;50.352;19.390;2023-06-22T06:44:37;98129.14;;;26.39;75.09
50011;BME280;35899;50.352;19.390;2023-06-22T06:47:04;98137.27;;;26.60;73.32
50011;BME280;35899;50.352;19.390;2023-06-22T06:49:30;98136.05;;;26.69;72.44
50011;BME280;35899;50.352;19.390;2023-06-22T06:51:56;98137.75;;;26.73;71.62
50011;BME280;35899;50.352;19.390;2023-06-22T06:54:23;98132.53;;;26.67;69.93
50011;BME280;35899;50.352;19.390;2023-06-22T06:56:49;98133.31;;;26.62;69.67
50011;BME280;35899;50.352;19.390;2023-06-22T06:59:15;98129.66;;;26.72;70.62
50011;BME280;35899;50.352;19.390;2023-06-22T07:01:41;98124.69;;;26.82;69.58
50011;BME280;35899;50.352;19.390;2023-06-22T07:04:08;98127.16;;;26.94;68.52
50011;BME280;35899;50.352;19.390;2023-06-22T07:06:34;98128.48;;;27.13;67.35
50011;BME280;35899;50.352;19.390;2023-06-22T07:09:01;98123.31;;;27.32;67.06
50011;BME280;35899;50.352;19.390;2023-06-22T07:11:27;98117.39;;;27.42;66.85
50011;BME280;35899;50.352;19.390;2023-06-22T07:13:53;98118.41;;;27.23;65.44
50011;BME280;35899;50.352;19.390;2023-06-22T07:16:20;98116.41;;;27.01;64.81
50011;BME280;35899;50.352;19.390;2023-06-22T07:18:46;98117.03;;;26.81;64.40
50011;BME280;35899;50.352;19.390;2023-06-22T07:21:13;98118.30;;;26.68;64.28
50011;BME280;35899;50.352;19.390;2023-06-22T07:23:39;98119.96;;;26.61;64.83
50011;BME280;35899;50.352;19.390;2023-06-22T07:26:05;98123.13;;;26.58;64.67
50011;BME280;35899;50.352;19.390;2023-06-22T07:28:32;98121.04;;;26.57;64.84
50011;BME280;35899;50.352;19.390;2023-06-22T07:30:58;98119.73;;;26.56;64.89
50011;BME280;35899;50.352;19.390;2023-06-22T07:33:24;98120.95;;;26.54;63.90
50011;BME280;35899;50.352;19.390;2023-06-22T07:35:51;98126.27;;;26.49;63.15
50011;BME280;35899;50.352;19.390;2023-06-22T07:38:17;98124.06;;;26.47;63.13
50011;BME280;35899;50.352;19.390;2023-06-22T07:40:44;98125.05;;;26.50;63.45
50011;BME280;35899;50.352;19.390;2023-06-22T07:43:10;98129.89;;;26.51;62.36
50011;BME280;35899;50.352;19.390;2023-06-22T07:45:37;98135.36;;;26.51;61.82
50011;BME280;35899;50.352;19.390;2023-06-22T07:48:04;98136.56;;;26.59;62.40
50011;BME280;35899;50.352;19.390;2023-06-22T07:50:30;98137.61;;;26.67;61.67
50011;BME280;35899;50.352;19.390;2023-06-22T07:52:57;98140.15;;;26.73;61.19
50011;BME280;35899;50.352;19.390;2023-06-22T07:55:23;98139.97;;;26.81;61.81
50011;BME280;35899;50.352;19.390;2023-06-22T07:57:50;98142.08;;;26.91;61.91
50011;BME280;35899;50.352;19.390;2023-06-22T08:00:16;98140.95;;;27.04;61.92
50011;BME280;35899;50.352;19.390;2023-06-22T08:02:43;98145.68;;;27.13;61.43
50011;BME280;35899;50.352;19.390;2023-06-22T08:05:10;98150.58;;;27.27;61.74
50011;BME280;35899;50.352;19.390;2023-06-22T08:07:48;98150.35;;;27.41;61.77
50011;BME280;35899;50.352;19.390;2023-06-22T08:10:15;98149.33;;;27.52;60.98
50011;BME280;35899;50.352;19.390;2023-06-22T08:12:41;98149.77;;;27.54;59.71
50011;BME280;35899;50.352;19.390;2023-06-22T08:15:08;98158.74;;;27.56;59.43
50011;BME280;35899;50.352;19.390;2023-06-22T08:17:36;98157.80;;;27.63;59.62
50011;BME280;35899;50.352;19.390;2023-06-22T08:20:02;98157.92;;;27.74;59.11
50011;BME280;35899;50.352;19.390;2023-06-22T08:22:29;98158.70;;;27.73;58.15
50011;BME280;35899;50.352;19.390;2023-06-22T08:24:55;98157.59;;;27.74;58.03
50011;BME280;35899;50.352;19.390;2023-06-22T08:27:21;98158.99;;;27.80;58.72
50011;BME280;35899;50.352;19.390;2023-06-22T08:29:48;98161.02;;;27.93;58.74
50011;BME280;35899;50.352;19.390;2023-06-22T08:32:14;98160.00;;;28.05;58.34
50011;BME280;35899;50.352;19.390;2023-06-22T08:34:40;98157.77;;;28.13;57.62
50011;BME280;35899;50.352;19.390;2023-06-22T08:37:07;98162.25;;;28.26;57.14
50011;BME280;35899;50.352;19.390;2023-06-22T08:39:33;98162.25;;;28.37;56.32
50011;BME280;35899;50.352;19.390;2023-06-22T08:42:02;98169.19;;;28.32;55.10
50011;BME280;35899;50.352;19.390;2023-06-22T08:44:28;98172.11;;;28.30;54.51
50011;BME280;35899;50.352;19.390;2023-06-22T08:46:55;98169.13;;;28.27;53.82
50011;BME280;35899;50.352;19.390;2023-06-22T08:49:21;98167.54;;;28.27;53.66
50011;BME280;35899;50.352;19.390;2023-06-22T08:51:47;98167.20;;;28.29;53.83
50011;BME280;35899;50.352;19.390;2023-06-22T08:54:15;98166.02;;;28.33;53.65
50011;BME280;35899;50.352;19.390;2023-06-22T08:56:41;98168.33;;;28.37;53.21
50011;BME280;35899;50.352;19.390;2023-06-22T08:59:08;98175.56;;;28.41;52.79
50011;BME280;35899;50.352;19.390;2023-06-22T09:01:34;98173.73;;;28.45;53.16
50011;BME280;35899;50.352;19.390;2023-06-22T09:04:00;98173.56;;;28.61;53.30
50011;BME280;35899;50.352;19.390;2023-06-22T09:06:27;98175.41;;;28.77;53.16
50011;BME280;35899;50.352;19.390;2023-06-22T09:08:53;98177.96;;;28.89;52.55
50011;BME280;35899;50.352;19.390;2023-06-22T09:11:20;98178.11;;;29.04;51.83
50011;BME280;35899;50.352;19.390;2023-06-22T09:13:48;98175.85;;;29.03;50.99
50011;BME280;35899;50.352;19.390;2023-06-22T09:16:15;98173.25;;;28.97;50.89
50011;BME280;35899;50.352;19.390;2023-06-22T09:18:42;98175.00;;;28.93;51.05
50011;BME280;35899;50.352;19.390;2023-06-22T09:21:08;98177.29;;;29.06;51.02
50011;BME280;35899;50.352;19.390;2023-06-22T09:23:36;98175.69;;;29.18;50.71
50011;BME280;35899;50.352;19.390;2023-06-22T09:26:03;98172.79;;;29.36;51.24
50011;BME280;35899;50.352;19.390;2023-06-22T09:28:29;98171.20;;;29.56;51.67
50011;BME280;35899;50.352;19.390;2023-06-22T09:30:55;98167.91;;;29.77;51.83
50011;BME280;35899;50.352;19.390;2023-06-22T09:33:22;98172.36;;;29.90;51.39
50011;BME280;35899;50.352;19.390;2023-06-22T09:35:48;98172.02;;;29.94;51.17
50011;BME280;35899;50.352;19.390;2023-06-22T09:38:15;98169.82;;;30.10;49.66
50011;BME280;35899;50.352;19.390;2023-06-22T09:40:41;98166.20;;;30.14;48.74
50011;BME280;35899;50.352;19.390;2023-06-22T09:43:07;98164.94;;;30.23;48.90
50011;BME280;35899;50.352;19.390;2023-06-22T09:45:34;98161.39;;;30.38;49.80
50011;BME280;35899;50.352;19.390;2023-06-22T09:48:00;98160.63;;;30.55;50.05
50011;BME280;35899;50.352;19.390;2023-06-22T09:50:26;98154.10;;;30.78;50.05
50011;BME280;35899;50.352;19.390;2023-06-22T09:52:53;98149.79;;;30.97;49.46
50011;BME280;35899;50.352;19.390;2023-06-22T09:55:20;98150.48;;;31.07;48.52
50011;BME280;35899;50.352;19.390;2023-06-22T09:57:46;98154.64;;;31.16;47.98
50011;BME280;35899;50.352;19.390;2023-06-22T10:00:13;98161.14;;;31.32;47.85
50011;BME280;35899;50.352;19.390;2023-06-22T10:02:41;98159.79;;;31.46;46.83
50011;BME280;35899;50.352;19.390;2023-06-22T10:05:07;98159.94;;;31.59;46.08
50011;BME280;35899;50.352;19.390;2023-06-22T10:07:34;98155.85;;;31.89;45.48
50011;BME280;35899;50.352;19.390;2023-06-22T10:10:01;98155.88;;;32.25;44.85
50011;BME280;35899;50.352;19.390;2023-06-22T10:12:28;98154.55;;;32.58;44.65
50011;BME280;35899;50.352;19.390;2023-06-22T10:14:55;98147.27;;;32.57;43.19
50011;BME280;35899;50.352;19.390;2023-06-22T10:17:21;98142.49;;;32.54;42.86
50011;BME280;35899;50.352;19.390;2023-06-22T10:19:48;98139.21;;;32.70;43.38
50011;BME280;35899;50.352;19.390;2023-06-22T10:22:14;98138.11;;;33.02;42.93
50011;BME280;35899;50.352;19.390;2023-06-22T10:24:40;98134.92;;;33.33;41.73
50011;BME280;35899;50.352;19.390;2023-06-22T10:27:07;98138.17;;;33.57;41.56
50011;BME280;35899;50.352;19.390;2023-06-22T10:29:33;98137.84;;;33.84;40.65
50011;BME280;35899;50.352;19.390;2023-06-22T10:31:59;98132.63;;;34.30;41.07
50011;BME280;35899;50.352;19.390;2023-06-22T10:34:26;98129.45;;;34.80;39.86
50011;BME280;35899;50.352;19.390;2023-06-22T10:36:52;98129.95;;;35.19;39.49
50011;BME280;35899;50.352;19.390;2023-06-22T10:39:18;98135.11;;;35.50;39.26
50011;BME280;35899;50.352;19.390;2023-06-22T10:41:45;98134.05;;;35.69;39.41
50011;BME280;35899;50.352;19.390;2023-06-22T10:44:11;98130.92;;;35.93;39.45
50011;BME280;35899;50.352;19.390;2023-06-22T10:46:38;98123.29;;;36.28;38.99
50011;BME280;35899;50.352;19.390;2023-06-22T10:49:04;98117.12;;;36.62;38.28
50011;BME280;35899;50.352;19.390;2023-06-22T10:51:30;98117.68;;;36.88;36.86
50011;BME280;35899;50.352;19.390;2023-06-22T10:53:57;98111.83;;;37.06;36.59
50011;BME280;35899;50.352;19.390;2023-06-22T10:56:23;98115.56;;;37.48;35.95
50011;BME280;35899;50.352;19.390;2023-06-22T10:58:49;98111.65;;;37.68;35.30
50011;BME280;35899;50.352;19.390;2023-06-22T11:01:16;98116.84;;;37.94;34.87
50011;BME280;35899;50.352;19.390;2023-06-22T11:04:00;98114.58;;;38.24;34.10
50011;BME280;35899;50.352;19.390;2023-06-22T11:06:27;98113.20;;;38.59;33.16
50011;BME280;35899;50.352;19.390;2023-06-22T11:08:53;98111.38;;;38.83;32.99
50011;BME280;35899;50.352;19.390;2023-06-22T11:11:39;98112.61;;;39.29;32.67
50011;BME280;35899;50.352;19.390;2023-06-22T11:14:06;98111.69;;;39.82;32.34
50011;BME280;35899;50.352;19.390;2023-06-22T11:16:32;98113.84;;;40.16;31.42
50011;BME280;35899;50.352;19.390;2023-06-22T11:18:59;98115.38;;;40.21;31.37
50011;BME280;35899;50.352;19.390;2023-06-22T11:21:25;98116.38;;;40.45;30.65
50011;BME280;35899;50.352;19.390;2023-06-22T11:23:52;98113.67;;;40.85;30.17
50011;BME280;35899;50.352;19.390;2023-06-22T11:26:18;98102.46;;;41.28;29.67
50011;BME280;35899;50.352;19.390;2023-06-22T11:28:44;98105.34;;;40.52;29.67
50011;BME280;35899;50.352;19.390;2023-06-22T11:31:11;98101.55;;;39.44;29.98
50011;BME280;35899;50.352;19.390;2023-06-22T11:33:51;98100.95;;;39.80;30.26
50011;BME280;35899;50.352;19.390;2023-06-22T11:36:18;98101.45;;;40.26;29.00
50011;BME280;35899;50.352;19.390;2023-06-22T11:38:44;98100.11;;;40.75;28.99
50011;BME280;35899;50.352;19.390;2023-06-22T11:41:11;98094.27;;;41.29;28.86
50011;BME280;35899;50.352;19.390;2023-06-22T11:43:37;98097.48;;;41.79;28.71
50011;BME280;35899;50.352;19.390;2023-06-22T11:46:04;98094.92;;;42.42;28.01
50011;BME280;35899;50.352;19.390;2023-06-22T11:48:30;98096.64;;;42.87;26.09
50011;BME280;35899;50.352;19.390;2023-06-22T11:50:57;98095.92;;;43.03;26.20
50011;BME280;35899;50.352;19.390;2023-06-22T11:53:26;98098.27;;;43.39;25.90
50011;BME280;35899;50.352;19.390;2023-06-22T11:55:52;98101.20;;;43.72;25.92
50011;BME280;35899;50.352;19.390;2023-06-22T11:58:19;98098.40;;;43.15;25.94
50011;BME280;35899;50.352;19.390;2023-06-22T12:00:45;98095.52;;;41.55;26.96
50011;BME280;35899;50.352;19.390;2023-06-22T12:03:18;98097.86;;;40.08;27.86
50011;BME280;35899;50.352;19.390;2023-06-22T12:05:44;98093.29;;;40.08;28.63
50011;BME280;35899;50.352;19.390;2023-06-22T12:08:11;98083.77;;;41.16;27.70
50011;BME280;35899;50.352;19.390;2023-06-22T12:10:37;98076.11;;;41.91;26.40
50011;BME280;35899;50.352;19.390;2023-06-22T12:13:04;98070.02;;;42.61;25.74
50011;BME280;35899;50.352;19.390;2023-06-22T12:15:30;98073.09;;;43.07;25.04
50011;BME280;35899;50.352;19.390;2023-06-22T12:17:56;98072.17;;;43.65;24.80
50011;BME280;35899;50.352;19.390;2023-06-22T12:20:23;98074.48;;;44.31;24.09
50011;BME280;35899;50.352;19.390;2023-06-22T12:22:51;98072.44;;;44.55;23.80
50011;BME280;35899;50.352;19.390;2023-06-22T12:25:18;98066.80;;;44.94;24.16
50011;BME280;35899;50.352;19.390;2023-06-22T12:27:44;98063.98;;;45.51;23.44
50011;BME280;35899;50.352;19.390;2023-06-22T12:30:10;98062.43;;;45.90;22.71
50011;BME280;35899;50.352;19.390;2023-06-22T12:32:38;98062.91;;;46.24;22.50
50011;BME280;35899;50.352;19.390;2023-06-22T12:35:05;98066.71;;;46.45;21.87
50011;BME280;35899;50.352;19.390;2023-06-22T12:37:31;98062.48;;;46.54;21.70
50011;BME280;35899;50.352;19.390;2023-06-22T12:39:58;98060.35;;;46.67;21.54
50011;BME280;35899;50.352;19.390;2023-06-22T12:42:24;98053.30;;;46.99;21.22
50011;BME280;35899;50.352;19.390;2023-06-22T12:44:50;98055.25;;;47.12;21.31
50011;BME280;35899;50.352;19.390;2023-06-22T12:47:17;98051.05;;;47.33;21.36
50011;BME280;35899;50.352;19.390;2023-06-22T12:49:43;98052.86;;;47.61;21.23
50011;BME280;35899;50.352;19.390;2023-06-22T12:52:09;98051.90;;;47.97;20.61
50011;BME280;35899;50.352;19.390;2023-06-22T12:54:36;98049.10;;;48.50;20.47
50011;BME280;35899;50.352;19.390;2023-06-22T12:57:16;98047.30;;;48.86;20.31
50011;BME280;35899;50.352;19.390;2023-06-22T12:59:42;98047.44;;;48.96;19.99
50011;BME280;35899;50.352;19.390;2023-06-22T13:02:09;98045.23;;;49.03;19.31
50011;BME280;35899;50.352;19.390;2023-06-22T13:04:35;98037.09;;;49.19;19.47